createdAt,value
2023-01-08T00:00:34.030Z,16.0
2023-01-08T00:01:34.246Z,16.9
2023-01-08T00:02:34.330Z,16.2
2023-01-08T00:03:34.476Z,15.6
2023-01-08T00:04:34.357Z,16.9
2023-01-08T00:05:34.208Z,17.2
2023-01-08T00:06:35.550Z,16.4
2023-01-08T00:07:34.282Z,15.9
2023-01-08T00:08:34.631Z,16.7
2023-01-08T00:09:33.983Z,18.5
2023-01-08T00:10:35.390Z,16.9
2023-01-08T00:11:33.988Z,16.2
2023-01-08T00:12:34.273Z,16.4
2023-01-08T00:13:34.660Z,17.5
2023-01-08T00:14:34.707Z,17.8
2023-01-08T00:15:34.119Z,16.4
2023-01-08T00:16:34.359Z,16.2
2023-01-08T00:17:34.349Z,16.6
2023-01-08T00:18:34.252Z,15.9
2023-01-08T00:19:34.238Z,15.4
2023-01-08T00:20:34.105Z,16.5
2023-01-08T00:21:33.930Z,15.2
2023-01-08T00:22:34.195Z,15.6
2023-01-08T00:23:34.339Z,16.3
2023-01-08T00:24:34.235Z,16.7
2023-01-08T00:25:33.942Z,17.6
2023-01-08T00:26:34.242Z,14.4
2023-01-08T00:27:34.504Z,15.8
2023-01-08T00:28:35.237Z,16.0
2023-01-08T00:29:34.548Z,15.7
2023-01-08T00:30:34.259Z,16.1
2023-01-08T00:31:34.652Z,15.8
2023-01-08T00:32:34.324Z,16.2
2023-01-08T00:33:35.089Z,17.1
2023-01-08T00:34:34.541Z,17.0
2023-01-08T00:35:33.928Z,15.3
2023-01-08T00:36:34.510Z,17.4
2023-01-08T00:37:33.930Z,16.9
2023-01-08T00:38:34.179Z,17.5
2023-01-08T00:39:33.995Z,15.3
2023-01-08T00:40:35.109Z,14.3
2023-01-08T00:41:34.460Z,16.9
2023-01-08T00:42:34.311Z,15.8
2023-01-08T00:43:34.758Z,16.4
2023-01-08T00:44:33.959Z,17.3
2023-01-08T00:45:34.485Z,16.2
2023-01-08T00:46:34.039Z,15.9
2023-01-08T00:47:34.292Z,16.5
2023-01-08T00:48:34.110Z,17.4
2023-01-08T00:49:34.441Z,17.3
2023-01-08T00:50:34.227Z,15.9
2023-01-08T00:51:33.967Z,17.0
2023-01-08T00:52:34.163Z,17.0
2023-01-08T00:53:34.399Z,17.5
2023-01-08T00:54:34.731Z,16.1
2023-01-08T00:55:34.323Z,17.7
2023-01-08T00:56:34.274Z,16.2
2023-01-08T00:57:35.597Z,17.8
2023-01-08T00:58:34.584Z,16.9
2023-01-08T00:59:34.274Z,18.1
2023-01-08T01:00:34.099Z,16.4
2023-01-08T01:01:34.909Z,15.2
2023-01-08T01:02:37.563Z,16.5
2023-01-08T01:03:34.745Z,17.1
2023-01-08T01:04:34.164Z,17.5
2023-01-08T01:05:34.334Z,18.7
2023-01-08T01:06:34.212Z,16.6
2023-01-08T01:07:34.059Z,16.1
2023-01-08T01:08:34.291Z,15.3
2023-01-08T01:09:34.092Z,16.0
2023-01-08T01:10:33.999Z,14.5
2023-01-08T01:11:34.619Z,17.6
2023-01-08T01:12:35.737Z,15.8
2023-01-08T01:13:34.269Z,15.8
2023-01-08T01:14:33.981Z,16.9
2023-01-08T01:15:34.795Z,16.2
2023-01-08T01:16:34.623Z,16.2
2023-01-08T01:17:34.676Z,18.0
2023-01-08T01:18:34.876Z,15.4
2023-01-08T01:19:33.895Z,16.9
2023-01-08T01:20:34.750Z,15.2
2023-01-08T01:21:34.558Z,17.2
2023-01-08T01:22:35.031Z,17.0
2023-01-08T01:23:34.543Z,16.0
2023-01-08T01:24:34.137Z,16.0
2023-01-08T01:25:39.004Z,17.5
2023-01-08T01:26:34.496Z,16.5
2023-01-08T01:27:34.643Z,16.8
2023-01-08T01:28:34.448Z,15.6
2023-01-08T01:29:34.597Z,16.3
2023-01-08T01:30:34.149Z,16.2
2023-01-08T01:31:34.001Z,16.0
2023-01-08T01:32:34.739Z,14.9
2023-01-08T01:33:33.978Z,15.4
2023-01-08T01:34:34.666Z,16.0
2023-01-08T01:35:34.485Z,16.6
2023-01-08T01:36:34.487Z,16.0
2023-01-08T01:37:34.158Z,16.2
2023-01-08T01:38:33.876Z,17.2
2023-01-08T01:39:34.706Z,15.2
2023-01-08T01:40:34.030Z,16.6
2023-01-08T01:41:40.900Z,17.4
2023-01-08T01:42:34.723Z,17.5
2023-01-08T01:43:35.897Z,16.3
2023-01-08T01:44:39.469Z,18.3
2023-01-08T01:45:34.430Z,14.6
2023-01-08T01:46:35.800Z,15.6
2023-01-08T01:47:38.420Z,16.7
2023-01-08T01:48:33.897Z,17.9
2023-01-08T01:49:34.900Z,16.2
2023-01-08T01:50:47.319Z,15.6
2023-01-08T01:51:35.388Z,17.7
2023-01-08T01:52:36.205Z,16.6
2023-01-08T01:53:35.153Z,17.2
2023-01-08T01:54:34.987Z,17.6
2023-01-08T01:55:36.347Z,16.6
2023-01-08T01:56:34.201Z,17.2
2023-01-08T01:57:35.870Z,16.0
2023-01-08T01:58:34.957Z,17.1
2023-01-08T01:59:34.092Z,17.3
2023-01-08T02:00:34.915Z,16.3
2023-01-08T02:01:34.379Z,15.2
2023-01-08T02:02:34.970Z,17.3
2023-01-08T02:03:36.174Z,16.8
2023-01-08T02:04:34.491Z,15.8
2023-01-08T02:05:45.279Z,16.2
2023-01-08T02:06:47.753Z,16.9
2023-01-08T02:07:44.789Z,17.2
2023-01-08T02:08:39.435Z,15.9
2023-01-08T02:09:39.473Z,15.5
2023-01-08T02:10:52.702Z,16.3
2023-01-08T02:11:42.259Z,17.1
2023-01-08T02:12:39.659Z,15.5
2023-01-08T02:13:37.459Z,15.6
2023-01-08T02:14:38.040Z,16.7
2023-01-08T02:15:38.660Z,16.9
2023-01-08T02:16:52.723Z,17.0
2023-01-08T02:17:39.067Z,17.5
2023-01-08T02:18:42.737Z,17.7
2023-01-08T02:19:44.756Z,16.8
2023-01-08T02:20:38.888Z,16.3
2023-01-08T02:21:44.737Z,16.9
2023-01-08T02:22:41.764Z,17.7
2023-01-08T02:23:42.311Z,18.0
2023-01-08T02:24:52.707Z,17.6
2023-01-08T02:25:38.834Z,16.1
2023-01-08T02:26:35.226Z,18.0
2023-01-08T02:27:34.879Z,16.3
2023-01-08T02:28:51.662Z,16.0
2023-01-08T02:29:34.553Z,18.2
2023-01-08T02:30:34.946Z,16.5
2023-01-08T02:31:35.077Z,18.0
2023-01-08T02:32:37.703Z,18.2
2023-01-08T02:33:34.949Z,15.7
2023-01-08T02:34:34.484Z,16.7
2023-01-08T02:35:39.122Z,17.3
2023-01-08T02:36:41.820Z,18.6
2023-01-08T02:37:35.251Z,16.9
2023-01-08T02:38:35.389Z,16.1
2023-01-08T02:39:45.227Z,17.1
2023-01-08T02:40:42.261Z,16.9
2023-01-08T02:41:42.276Z,16.6
2023-01-08T02:42:44.758Z,14.9
2023-01-08T02:43:41.491Z,15.7
2023-01-08T02:44:39.419Z,16.4
2023-01-08T02:45:45.158Z,17.6
2023-01-08T02:46:36.887Z,18.9
2023-01-08T02:47:41.734Z,15.8
2023-01-08T02:48:42.256Z,17.3
2023-01-08T02:49:37.826Z,18.5
2023-01-08T02:50:39.722Z,17.7
2023-01-08T02:51:40.093Z,16.4
2023-01-08T02:52:36.012Z,15.5
2023-01-08T02:53:40.124Z,15.9
2023-01-08T02:54:34.371Z,15.8
2023-01-08T02:55:35.525Z,17.6
2023-01-08T02:56:40.031Z,16.1
2023-01-08T02:57:34.286Z,17.0
2023-01-08T02:58:35.873Z,17.4
2023-01-08T02:59:35.062Z,16.4
2023-01-08T03:00:34.505Z,16.9
2023-01-08T03:01:34.415Z,15.4
2023-01-08T03:02:34.692Z,16.1
2023-01-08T03:03:35.893Z,16.6
2023-01-08T03:04:37.059Z,17.6
2023-01-08T03:05:34.121Z,17.2
2023-01-08T03:06:34.286Z,16.1
2023-01-08T03:07:34.875Z,15.9
2023-01-08T03:08:36.591Z,17.4
2023-01-08T03:09:34.529Z,18.2
2023-01-08T03:10:35.570Z,16.3
2023-01-08T03:11:39.501Z,16.7
2023-01-08T03:12:44.177Z,15.3
2023-01-08T03:13:52.693Z,16.8
2023-01-08T03:14:37.073Z,18.0
2023-01-08T03:15:39.250Z,16.8
2023-01-08T03:16:38.651Z,16.9
2023-01-08T03:17:36.285Z,17.1
2023-01-08T03:18:36.621Z,16.2
2023-01-08T03:19:39.274Z,16.9
2023-01-08T03:20:36.131Z,16.4
2023-01-08T03:21:35.143Z,15.7
2023-01-08T03:22:36.331Z,14.5
2023-01-08T03:23:34.616Z,15.5
2023-01-08T03:24:36.463Z,15.6
2023-01-08T03:25:36.410Z,15.3
2023-01-08T03:26:35.461Z,15.4
2023-01-08T03:27:39.059Z,16.1
2023-01-08T03:28:37.741Z,17.2
2023-01-08T03:29:35.017Z,15.5
2023-01-08T03:30:35.322Z,18.3
2023-01-08T03:31:33.982Z,18.4
2023-01-08T03:32:35.721Z,15.7
2023-01-08T03:33:34.081Z,15.6
2023-01-08T03:34:36.456Z,16.9
2023-01-08T03:35:36.323Z,17.8
2023-01-08T03:36:35.711Z,16.2
2023-01-08T03:37:36.221Z,17.0
2023-01-08T03:38:36.708Z,16.8
2023-01-08T03:39:40.776Z,17.1
2023-01-08T03:40:35.956Z,16.5
2023-01-08T03:41:35.233Z,17.4
2023-01-08T03:42:34.039Z,18.4
2023-01-08T03:43:34.818Z,18.1
2023-01-08T03:44:34.543Z,18.4
2023-01-08T03:45:36.142Z,17.7
2023-01-08T03:46:37.730Z,17.0
2023-01-08T03:47:35.131Z,17.0
2023-01-08T03:48:34.727Z,17.4
2023-01-08T03:49:34.653Z,17.9
2023-01-08T03:50:34.447Z,15.1
2023-01-08T03:51:41.084Z,16.8
2023-01-08T03:52:34.054Z,15.8
2023-01-08T03:53:34.840Z,16.6
2023-01-08T03:54:35.154Z,17.4
2023-01-08T03:55:34.432Z,17.6
2023-01-08T03:56:34.103Z,16.2
2023-01-08T03:57:34.454Z,18.8
2023-01-08T03:58:34.201Z,16.3
2023-01-08T03:59:33.855Z,16.1
2023-01-08T04:00:34.756Z,16.7
2023-01-08T04:01:35.068Z,16.8
2023-01-08T04:02:34.490Z,17.5
2023-01-08T04:03:34.161Z,16.1
2023-01-08T04:04:34.889Z,16.1
2023-01-08T04:05:34.187Z,17.2
2023-01-08T04:06:34.427Z,15.0
2023-01-08T04:07:34.277Z,14.6
2023-01-08T04:08:34.140Z,16.6
2023-01-08T04:09:34.337Z,17.2
2023-01-08T04:10:34.211Z,15.0
2023-01-08T04:11:34.929Z,17.7
2023-01-08T04:12:34.264Z,16.5
2023-01-08T04:13:34.069Z,15.4
2023-01-08T04:14:34.752Z,16.9
2023-01-08T04:15:34.074Z,18.2
2023-01-08T04:16:34.444Z,16.1
2023-01-08T04:17:34.544Z,16.6
2023-01-08T04:18:34.833Z,17.2
2023-01-08T04:19:34.170Z,17.3
2023-01-08T04:20:34.873Z,15.8
2023-01-08T04:21:34.858Z,17.2
2023-01-08T04:22:34.178Z,16.2
2023-01-08T04:23:34.365Z,16.7
2023-01-08T04:24:34.446Z,15.9
2023-01-08T04:25:36.244Z,16.5
2023-01-08T04:26:34.313Z,17.0
2023-01-08T04:27:34.103Z,16.1
2023-01-08T04:28:35.175Z,17.6
2023-01-08T04:29:34.323Z,15.4
2023-01-08T04:30:35.695Z,18.8
2023-01-08T04:31:34.205Z,18.4
2023-01-08T04:32:34.517Z,19.0
2023-01-08T04:33:34.991Z,16.6
2023-01-08T04:34:34.498Z,16.8
2023-01-08T04:35:34.790Z,16.6
2023-01-08T04:36:34.249Z,17.0
2023-01-08T04:37:34.388Z,15.8
2023-01-08T04:38:34.154Z,17.0
2023-01-08T04:39:34.448Z,17.8
2023-01-08T04:40:34.579Z,17.2
2023-01-08T04:41:34.084Z,16.7
2023-01-08T04:42:34.684Z,15.9
2023-01-08T04:43:34.975Z,16.3
2023-01-08T04:44:34.272Z,15.5
2023-01-08T04:45:34.171Z,16.0
2023-01-08T04:46:34.879Z,16.1
2023-01-08T04:47:34.202Z,15.8
2023-01-08T04:48:35.151Z,17.2
2023-01-08T04:49:35.016Z,16.7
2023-01-08T04:50:34.501Z,16.9
2023-01-08T04:51:34.760Z,17.1
2023-01-08T04:52:34.876Z,16.9
2023-01-08T04:53:36.322Z,17.8
2023-01-08T04:54:34.528Z,16.0
2023-01-08T04:55:34.500Z,17.4
2023-01-08T04:56:34.684Z,16.2
2023-01-08T04:57:34.460Z,17.5
2023-01-08T04:58:35.153Z,17.0
2023-01-08T04:59:34.525Z,16.8
2023-01-08T05:00:35.451Z,15.2
2023-01-08T05:01:34.288Z,16.9
2023-01-08T05:02:34.902Z,15.8
2023-01-08T05:03:34.243Z,16.3
2023-01-08T05:04:34.008Z,16.8
2023-01-08T05:05:34.599Z,17.0
2023-01-08T05:06:34.600Z,18.0
2023-01-08T05:07:34.792Z,15.5
2023-01-08T05:08:34.713Z,16.3
2023-01-08T05:09:34.955Z,15.5
2023-01-08T05:10:34.448Z,16.5
2023-01-08T05:11:34.095Z,15.5
2023-01-08T05:12:34.284Z,16.5
2023-01-08T05:13:34.064Z,17.8
2023-01-08T05:14:33.923Z,16.2
2023-01-08T05:15:34.227Z,16.0
2023-01-08T05:16:33.963Z,15.5
2023-01-08T05:17:34.797Z,16.9
2023-01-08T05:18:34.537Z,18.8
2023-01-08T05:19:34.294Z,16.7
2023-01-08T05:20:34.357Z,14.3
2023-01-08T05:21:33.972Z,15.7
2023-01-08T05:22:34.277Z,15.0
2023-01-08T05:23:34.040Z,17.6
2023-01-08T05:24:34.451Z,15.6
2023-01-08T05:25:34.748Z,17.0
2023-01-08T05:26:34.785Z,16.7
2023-01-08T05:27:34.634Z,14.9
2023-01-08T05:28:34.473Z,16.8
2023-01-08T05:29:34.622Z,16.1
2023-01-08T05:30:35.225Z,16.4
2023-01-08T05:31:34.758Z,15.1
2023-01-08T05:32:34.102Z,16.2
2023-01-08T05:33:33.938Z,16.2
2023-01-08T05:34:34.620Z,15.8
2023-01-08T05:35:34.364Z,17.2
2023-01-08T05:36:34.241Z,14.5
2023-01-08T05:37:34.414Z,17.4
2023-01-08T05:38:34.704Z,16.6
2023-01-08T05:39:34.942Z,16.0
2023-01-08T05:40:34.323Z,16.6
2023-01-08T05:41:34.181Z,15.2
2023-01-08T05:42:34.846Z,16.1
2023-01-08T05:43:34.707Z,16.2
2023-01-08T05:44:34.356Z,17.3
2023-01-08T05:45:34.651Z,15.9
2023-01-08T05:46:34.647Z,15.1
2023-01-08T05:47:34.626Z,15.9
2023-01-08T05:48:34.788Z,14.4
2023-01-08T05:49:34.374Z,18.0
2023-01-08T05:50:34.788Z,15.5
2023-01-08T05:51:34.375Z,15.5
2023-01-08T05:52:34.130Z,17.5
2023-01-08T05:53:34.100Z,15.2
2023-01-08T05:54:34.749Z,16.3
2023-01-08T05:55:34.233Z,16.3
2023-01-08T05:56:33.942Z,14.9
2023-01-08T05:57:34.638Z,15.0
2023-01-08T05:58:34.529Z,14.3
2023-01-08T05:59:34.759Z,16.3
2023-01-08T06:00:34.538Z,14.7
2023-01-08T06:01:34.425Z,16.1
2023-01-08T06:02:34.961Z,15.8
2023-01-08T06:03:34.389Z,17.5
2023-01-08T06:04:34.333Z,15.8
2023-01-08T06:05:34.420Z,14.6
2023-01-08T06:06:34.685Z,16.3
2023-01-08T06:07:34.476Z,14.4
2023-01-08T06:08:35.006Z,15.2
2023-01-08T06:09:34.103Z,14.9
2023-01-08T06:10:36.607Z,15.4
2023-01-08T06:11:34.189Z,17.3
2023-01-08T06:12:34.544Z,16.0
2023-01-08T06:13:34.552Z,15.9
2023-01-08T06:14:34.557Z,14.8
2023-01-08T06:15:34.310Z,15.4
2023-01-08T06:16:34.515Z,14.9
2023-01-08T06:17:34.466Z,14.8
2023-01-08T06:18:34.262Z,16.3
2023-01-08T06:19:34.385Z,15.5
2023-01-08T06:20:34.549Z,14.7
2023-01-08T06:21:34.054Z,14.6
2023-01-08T06:22:34.796Z,15.4
2023-01-08T06:23:34.221Z,15.7
2023-01-08T06:24:34.874Z,16.0
2023-01-08T06:25:35.205Z,16.1
2023-01-08T06:26:34.462Z,15.7
2023-01-08T06:27:34.260Z,16.7
2023-01-08T06:28:34.777Z,14.5
2023-01-08T06:29:34.786Z,14.0
2023-01-08T06:30:34.737Z,15.9
2023-01-08T06:31:34.452Z,13.9
2023-01-08T06:32:34.642Z,15.3
2023-01-08T06:33:34.050Z,15.1
2023-01-08T06:34:34.719Z,14.0
2023-01-08T06:35:34.565Z,16.4
2023-01-08T06:36:34.812Z,15.4
2023-01-08T06:37:34.610Z,13.7
2023-01-08T06:38:37.517Z,13.5
2023-01-08T06:39:34.931Z,15.9
2023-01-08T06:40:34.519Z,14.1
2023-01-08T06:41:34.774Z,14.5
2023-01-08T06:42:34.524Z,15.2
2023-01-08T06:43:34.259Z,16.0
2023-01-08T06:44:34.672Z,15.0
2023-01-08T06:45:34.422Z,16.3
2023-01-08T06:46:34.449Z,14.9
2023-01-08T06:47:34.470Z,13.3
2023-01-08T06:48:34.548Z,14.5
2023-01-08T06:49:34.530Z,15.4
2023-01-08T06:50:34.411Z,14.1
2023-01-08T06:51:35.088Z,14.3
2023-01-08T06:52:33.986Z,14.7
2023-01-08T06:53:34.604Z,16.3
2023-01-08T06:54:34.033Z,16.5
2023-01-08T06:55:34.264Z,13.5
2023-01-08T06:56:48.847Z,15.1
2023-01-08T06:57:34.768Z,15.1
2023-01-08T06:58:34.093Z,15.1
2023-01-08T06:59:34.795Z,14.0
2023-01-08T07:00:34.657Z,15.2
2023-01-08T07:01:34.565Z,13.9
2023-01-08T07:02:34.580Z,14.5
2023-01-08T07:03:34.590Z,15.5
2023-01-08T07:04:33.867Z,14.5
2023-01-08T07:05:34.470Z,15.0
2023-01-08T07:06:35.096Z,14.4
2023-01-08T07:07:34.593Z,14.0
2023-01-08T07:08:33.966Z,15.1
2023-01-08T07:09:34.303Z,15.2
2023-01-08T07:10:33.991Z,15.0
2023-01-08T07:11:34.685Z,14.4
2023-01-08T07:12:34.684Z,15.2
2023-01-08T07:13:34.291Z,15.1
2023-01-08T07:14:34.553Z,15.5
2023-01-08T07:15:37.047Z,15.6
2023-01-08T07:16:34.599Z,14.4
2023-01-08T07:17:34.014Z,14.4
2023-01-08T07:18:34.499Z,14.1
2023-01-08T07:19:33.957Z,13.6
2023-01-08T07:20:35.037Z,14.5
2023-01-08T07:21:34.586Z,14.2
2023-01-08T07:22:33.927Z,14.3
2023-01-08T07:23:34.493Z,15.2
2023-01-08T07:24:34.435Z,13.7
2023-01-08T07:25:34.215Z,12.2
2023-01-08T07:26:34.549Z,15.1
2023-01-08T07:27:34.329Z,13.3
2023-01-08T07:28:34.115Z,13.9
2023-01-08T07:29:33.958Z,13.5
2023-01-08T07:30:34.753Z,13.7
2023-01-08T07:31:34.001Z,14.1
2023-01-08T07:32:34.235Z,15.0
2023-01-08T07:33:34.458Z,12.9
2023-01-08T07:34:33.863Z,12.1
2023-01-08T07:35:34.649Z,13.7
2023-01-08T07:36:33.971Z,14.1
2023-01-08T07:37:38.405Z,13.4
2023-01-08T07:38:34.594Z,13.1
2023-01-08T07:39:34.390Z,12.4
2023-01-08T07:40:34.584Z,13.9
2023-01-08T07:41:34.424Z,13.2
2023-01-08T07:42:34.277Z,12.8
2023-01-08T07:43:34.577Z,15.3
2023-01-08T07:44:34.364Z,13.6
2023-01-08T07:45:34.164Z,14.5
2023-01-08T07:46:34.045Z,13.5
2023-01-08T07:47:34.744Z,13.1
2023-01-08T07:48:34.203Z,13.2
2023-01-08T07:49:34.391Z,14.9
2023-01-08T07:50:35.588Z,13.1
2023-01-08T07:51:34.527Z,13.1
2023-01-08T07:52:34.252Z,12.3
2023-01-08T07:53:35.036Z,15.1
2023-01-08T07:54:33.876Z,11.9
2023-01-08T07:55:34.337Z,12.9
2023-01-08T07:56:34.390Z,13.5
2023-01-08T07:57:34.257Z,12.4
2023-01-08T07:58:34.078Z,13.0
2023-01-08T07:59:34.762Z,14.0
2023-01-08T08:00:34.643Z,11.8
2023-01-08T08:01:34.914Z,13.9
2023-01-08T08:02:34.707Z,12.5
2023-01-08T08:03:34.937Z,12.0
2023-01-08T08:04:34.658Z,13.4
2023-01-08T08:05:34.567Z,11.8
2023-01-08T08:06:34.729Z,13.7
2023-01-08T08:07:34.074Z,12.7
2023-01-08T08:08:34.775Z,12.3
2023-01-08T08:09:34.567Z,14.8
2023-01-08T08:10:34.391Z,13.5
2023-01-08T08:11:34.178Z,12.9
2023-01-08T08:12:34.477Z,13.1
2023-01-08T08:13:34.334Z,12.1
2023-01-08T08:14:34.144Z,15.0
2023-01-08T08:15:34.476Z,13.1
2023-01-08T08:16:34.687Z,13.8
2023-01-08T08:17:34.040Z,13.9
2023-01-08T08:18:34.451Z,12.7
2023-01-08T08:19:33.994Z,14.5
2023-01-08T08:20:34.493Z,13.9
2023-01-08T08:21:34.048Z,12.7
2023-01-08T08:22:34.804Z,13.5
2023-01-08T08:23:36.621Z,11.7
2023-01-08T08:24:34.460Z,12.1
2023-01-08T08:25:34.454Z,12.5
2023-01-08T08:26:34.557Z,13.8
2023-01-08T08:27:34.464Z,13.0
2023-01-08T08:28:34.214Z,12.6
2023-01-08T08:29:34.027Z,14.2
2023-01-08T08:30:35.144Z,12.5
2023-01-08T08:31:34.466Z,12.4
2023-01-08T08:32:34.460Z,13.1
2023-01-08T08:33:34.117Z,12.9
2023-01-08T08:34:34.367Z,12.5
2023-01-08T08:35:34.495Z,12.8
2023-01-08T08:36:34.065Z,12.9
2023-01-08T08:37:34.287Z,13.1
2023-01-08T08:38:35.598Z,13.8
2023-01-08T08:39:35.560Z,12.9
2023-01-08T08:40:34.656Z,11.7
2023-01-08T08:41:34.841Z,13.0
2023-01-08T08:42:34.540Z,13.5
2023-01-08T08:43:33.933Z,13.6
2023-01-08T08:44:34.626Z,13.2
2023-01-08T08:45:34.593Z,13.6
2023-01-08T08:46:34.403Z,12.5
2023-01-08T08:47:34.137Z,12.4
2023-01-08T08:48:34.448Z,12.6
2023-01-08T08:49:34.718Z,11.8
2023-01-08T08:50:34.455Z,13.0
2023-01-08T08:51:34.791Z,11.6
2023-01-08T08:52:34.442Z,12.3
2023-01-08T08:53:34.323Z,11.9
2023-01-08T08:54:34.517Z,12.2
2023-01-08T08:55:34.658Z,11.9
2023-01-08T08:56:34.254Z,12.4
2023-01-08T08:57:34.088Z,10.8
2023-01-08T08:58:34.088Z,12.2
2023-01-08T08:59:34.629Z,12.4
2023-01-08T09:00:33.993Z,12.5
2023-01-08T09:01:34.776Z,12.4
2023-01-08T09:02:34.717Z,11.1
2023-01-08T09:03:41.421Z,12.1
2023-01-08T09:04:34.476Z,11.8
2023-01-08T09:05:35.164Z,12.2
2023-01-08T09:06:34.671Z,13.1
2023-01-08T09:07:34.682Z,10.9
2023-01-08T09:08:35.425Z,12.4
2023-01-08T09:09:34.471Z,11.5
2023-01-08T09:10:35.700Z,12.2
2023-01-08T09:11:34.612Z,12.1
2023-01-08T09:12:34.342Z,11.7
2023-01-08T09:13:35.636Z,12.7
2023-01-08T09:14:34.008Z,10.7
2023-01-08T09:15:35.563Z,12.1
2023-01-08T09:16:34.598Z,11.0
2023-01-08T09:17:34.399Z,11.8
2023-01-08T09:18:34.667Z,11.4
2023-01-08T09:19:34.518Z,12.9
2023-01-08T09:20:34.947Z,10.6
2023-01-08T09:21:35.346Z,12.0
2023-01-08T09:22:34.326Z,10.5
2023-01-08T09:23:34.519Z,12.1
2023-01-08T09:24:34.030Z,11.6
2023-01-08T09:25:34.658Z,11.9
2023-01-08T09:26:34.519Z,11.2
2023-01-08T09:27:34.381Z,12.0
2023-01-08T09:28:34.122Z,11.6
2023-01-08T09:29:33.977Z,11.9
2023-01-08T09:30:34.701Z,12.5
2023-01-08T09:31:34.179Z,11.6
2023-01-08T09:32:34.852Z,12.0
2023-01-08T09:33:34.541Z,12.0
2023-01-08T09:34:34.236Z,12.8
2023-01-08T09:35:34.210Z,11.4
2023-01-08T09:36:34.398Z,12.1
2023-01-08T09:37:34.241Z,13.2
2023-01-08T09:38:34.175Z,11.6
2023-01-08T09:39:35.068Z,10.8
2023-01-08T09:40:36.813Z,10.3
2023-01-08T09:41:35.829Z,11.6
2023-01-08T09:42:34.576Z,11.4
2023-01-08T09:43:36.166Z,11.5
2023-01-08T09:44:38.528Z,11.6
2023-01-08T09:45:35.229Z,10.2
2023-01-08T09:46:35.351Z,12.0
2023-01-08T09:47:37.516Z,10.1
2023-01-08T09:48:35.596Z,10.4
2023-01-08T09:49:42.335Z,10.8
2023-01-08T09:50:34.596Z,10.6
2023-01-08T09:51:35.198Z,12.1
2023-01-08T09:52:34.222Z,9.5
2023-01-08T09:53:34.235Z,10.8
2023-01-08T09:54:34.262Z,11.4
2023-01-08T09:55:34.136Z,11.1
2023-01-08T09:56:34.481Z,11.1
2023-01-08T09:57:34.665Z,10.0
2023-01-08T09:58:35.966Z,11.0
2023-01-08T09:59:34.764Z,10.8
2023-01-08T10:00:34.761Z,11.2
2023-01-08T10:01:36.414Z,11.5
2023-01-08T10:02:39.126Z,10.3
2023-01-08T10:03:45.281Z,9.7
2023-01-08T10:04:34.261Z,9.9
2023-01-08T10:05:34.146Z,11.9
2023-01-08T10:06:33.884Z,10.3
2023-01-08T10:07:34.569Z,9.4
2023-01-08T10:08:34.429Z,10.8
2023-01-08T10:09:34.229Z,9.3
2023-01-08T10:10:35.502Z,11.1
2023-01-08T10:11:44.761Z,11.8
2023-01-08T10:12:34.152Z,10.8
2023-01-08T10:13:36.015Z,11.1
2023-01-08T10:14:35.791Z,9.8
2023-01-08T10:15:34.052Z,9.6
2023-01-08T10:16:35.687Z,9.5
2023-01-08T10:17:39.467Z,8.6
2023-01-08T10:18:34.081Z,11.9
2023-01-08T10:19:34.650Z,9.7
2023-01-08T10:20:34.500Z,10.4
2023-01-08T10:21:38.703Z,10.1
2023-01-08T10:22:34.114Z,9.0
2023-01-08T10:23:33.968Z,8.7
2023-01-08T10:24:35.748Z,8.2
2023-01-08T10:25:39.298Z,9.4
2023-01-08T10:26:36.053Z,9.0
2023-01-08T10:27:38.958Z,9.2
2023-01-08T10:28:33.954Z,8.8
2023-01-08T10:29:34.905Z,8.9
2023-01-08T10:30:36.275Z,8.9
2023-01-08T10:31:38.105Z,8.0
2023-01-08T10:32:36.276Z,8.9
2023-01-08T10:33:40.939Z,10.8
2023-01-08T10:34:44.299Z,7.9
2023-01-08T10:35:35.057Z,9.8
2023-01-08T10:36:38.217Z,9.3
2023-01-08T10:37:38.449Z,8.9
2023-01-08T10:38:53.767Z,9.5
2023-01-08T10:39:34.958Z,10.3
2023-01-08T10:40:39.280Z,9.5
2023-01-08T10:41:37.518Z,8.9
2023-01-08T10:42:34.926Z,10.2
2023-01-08T10:43:36.539Z,8.9
2023-01-08T10:44:34.798Z,9.3
2023-01-08T10:45:34.835Z,9.4
2023-01-08T10:46:35.989Z,10.2
2023-01-08T10:47:35.008Z,9.6
2023-01-08T10:48:37.251Z,10.0
2023-01-08T10:49:37.432Z,9.0
2023-01-08T10:50:34.364Z,9.5
2023-01-08T10:51:34.158Z,9.0
2023-01-08T10:52:33.948Z,9.4
2023-01-08T10:53:34.748Z,8.9
2023-01-08T10:54:36.147Z,9.6
2023-01-08T10:55:35.211Z,8.8
2023-01-08T10:56:41.506Z,8.3
2023-01-08T10:57:34.370Z,9.5
2023-01-08T10:58:39.065Z,8.7
2023-01-08T10:59:35.254Z,10.1
2023-01-08T11:00:35.546Z,8.9
2023-01-08T11:01:34.563Z,9.4
2023-01-08T11:02:38.337Z,8.4
2023-01-08T11:03:34.540Z,9.9
2023-01-08T11:04:35.077Z,10.6
2023-01-08T11:05:37.940Z,9.9
2023-01-08T11:06:42.230Z,8.9
2023-01-08T11:07:34.264Z,9.1
2023-01-08T11:08:34.085Z,8.9
2023-01-08T11:09:39.974Z,8.3
2023-01-08T11:10:35.590Z,9.1
2023-01-08T11:11:34.914Z,8.9
2023-01-08T11:12:38.305Z,9.5
2023-01-08T11:13:34.457Z,9.2
2023-01-08T11:14:34.546Z,9.6
2023-01-08T11:15:37.830Z,9.2
2023-01-08T11:16:38.473Z,8.7
2023-01-08T11:17:34.613Z,9.8
2023-01-08T11:18:39.275Z,9.1
2023-01-08T11:19:34.218Z,9.3
2023-01-08T11:20:34.318Z,9.3
2023-01-08T11:21:34.385Z,9.2
2023-01-08T11:22:34.093Z,9.0
2023-01-08T11:23:33.939Z,9.0
2023-01-08T11:24:35.830Z,9.3
2023-01-08T11:25:34.944Z,8.4
2023-01-08T11:26:35.177Z,8.8
2023-01-08T11:27:36.111Z,10.1
2023-01-08T11:28:44.738Z,9.4
2023-01-08T11:29:43.100Z,8.3
2023-01-08T11:30:35.472Z,8.9
2023-01-08T11:31:38.199Z,9.6
2023-01-08T11:32:38.954Z,8.2
2023-01-08T11:33:36.740Z,7.4
2023-01-08T11:34:42.245Z,8.4
2023-01-08T11:35:43.881Z,8.2
2023-01-08T11:36:37.370Z,8.1
2023-01-08T11:37:38.896Z,8.8
2023-01-08T11:38:34.925Z,7.4
2023-01-08T11:39:36.611Z,8.3
2023-01-08T11:40:52.217Z,8.5
2023-01-08T11:41:54.254Z,8.8
2023-01-08T11:42:52.996Z,9.4
2023-01-08T11:43:52.207Z,7.9
2023-01-08T11:44:41.805Z,7.4
2023-01-08T11:45:52.215Z,9.2
2023-01-08T11:46:41.734Z,8.4
2023-01-08T11:47:52.162Z,8.4
2023-01-08T11:48:41.293Z,7.9
2023-01-08T11:49:52.705Z,8.3
2023-01-08T11:50:41.762Z,7.9
2023-01-08T11:51:36.692Z,8.8
2023-01-08T11:52:43.349Z,7.8
2023-01-08T11:53:42.334Z,8.0
2023-01-08T11:54:45.256Z,8.7
2023-01-08T11:55:39.058Z,8.0
2023-01-08T11:56:38.864Z,7.1
2023-01-08T11:57:39.624Z,8.5
2023-01-08T11:58:54.455Z,8.2
2023-01-08T11:59:39.250Z,9.7
2023-01-08T12:00:50.765Z,8.6
2023-01-08T12:01:41.893Z,7.0
2023-01-08T12:02:53.998Z,7.6
2023-01-08T12:03:48.618Z,7.4
2023-01-08T12:04:39.364Z,7.9
2023-01-08T12:05:39.039Z,8.5
2023-01-08T12:06:52.166Z,7.3
2023-01-08T12:07:41.754Z,7.6
2023-01-08T12:08:44.738Z,8.0
2023-01-08T12:09:39.253Z,7.6
2023-01-08T12:10:56.808Z,8.2
2023-01-08T12:11:52.739Z,8.1
2023-01-08T12:12:45.236Z,7.3
2023-01-08T12:13:52.680Z,8.0
2023-01-08T12:14:50.810Z,8.1
2023-01-08T12:15:47.779Z,9.2
2023-01-08T12:16:44.866Z,7.1
2023-01-08T12:17:44.769Z,8.5
2023-01-08T12:18:38.926Z,7.5
2023-01-08T12:19:42.332Z,7.9
2023-01-08T12:20:41.683Z,8.2
2023-01-08T12:21:52.224Z,8.1
2023-01-08T12:22:41.793Z,7.4
2023-01-08T12:23:47.808Z,7.9
2023-01-08T12:24:39.622Z,8.2
2023-01-08T12:25:38.993Z,7.3
2023-01-08T12:26:41.667Z,7.7
2023-01-08T12:27:57.306Z,7.5
2023-01-08T12:28:52.197Z,8.5
2023-01-08T12:29:48.246Z,7.9
2023-01-08T12:30:38.910Z,7.8
2023-01-08T12:31:44.300Z,7.6
2023-01-08T12:32:39.432Z,8.1
2023-01-08T12:33:39.981Z,6.8
2023-01-08T12:34:39.072Z,6.4
2023-01-08T12:35:41.798Z,8.2
2023-01-08T12:36:37.055Z,7.7
2023-01-08T12:37:47.699Z,8.0
2023-01-08T12:38:41.576Z,7.2
2023-01-08T12:39:39.068Z,8.0
2023-01-08T12:40:38.892Z,6.9
2023-01-08T12:41:35.192Z,7.7
2023-01-08T12:42:37.409Z,6.8
2023-01-08T12:43:50.763Z,7.3
2023-01-08T12:44:35.923Z,6.5
2023-01-08T12:45:39.755Z,7.1
2023-01-08T12:46:35.388Z,8.3
2023-01-08T12:47:36.733Z,7.6
2023-01-08T12:48:34.614Z,7.0
2023-01-08T12:49:37.804Z,7.1
2023-01-08T12:50:47.823Z,7.1
2023-01-08T12:51:39.575Z,7.2
2023-01-08T12:52:38.781Z,5.8
2023-01-08T12:53:39.610Z,7.8
2023-01-08T12:54:39.473Z,6.8
2023-01-08T12:55:48.289Z,6.8
2023-01-08T12:56:48.255Z,7.0
2023-01-08T12:57:38.157Z,7.4
2023-01-08T12:58:41.800Z,7.1
2023-01-08T12:59:52.261Z,6.3
2023-01-08T13:00:42.362Z,6.6
2023-01-08T13:01:41.670Z,6.9
2023-01-08T13:02:52.504Z,6.2
2023-01-08T13:03:35.137Z,7.0
2023-01-08T13:04:40.601Z,5.8
2023-01-08T13:05:35.654Z,7.7
2023-01-08T13:06:34.194Z,6.6
2023-01-08T13:07:41.542Z,6.1
2023-01-08T13:08:35.975Z,7.0
2023-01-08T13:09:34.469Z,6.5
2023-01-08T13:10:35.991Z,5.6
2023-01-08T13:11:35.099Z,6.4
2023-01-08T13:12:37.809Z,6.9
2023-01-08T13:13:36.044Z,6.3
2023-01-08T13:14:41.521Z,6.0
2023-01-08T13:15:35.007Z,7.0
2023-01-08T13:16:39.083Z,6.6
2023-01-08T13:17:36.446Z,7.5
2023-01-08T13:18:34.763Z,5.9
2023-01-08T13:19:41.643Z,6.5
2023-01-08T13:20:34.304Z,5.8
2023-01-08T13:21:38.120Z,6.8
2023-01-08T13:22:34.985Z,7.3
2023-01-08T13:23:34.950Z,5.7
2023-01-08T13:24:36.380Z,6.1